Time;durP1;ratioP1;P1;durP2;ratioP2;P2;SDS_P1;SDS_P2;PMS_P1;PMS_P2;Temp;Humidity;BMP_temperature;BMP_pressure;BME280_temperature;BME280_humidity;BME280_pressure;Samples;Min_cycle;Max_cycle;Signal;HPM_P1;HPM_P2
2024/03/05 00:00:51;;;;;;;18.98;9.05;;;;;;;3.94;100.00;101325.47;6086734;19;20068;-78
2024/03/05 00:03:01;;;;;;;19.15;8.43;;;;;;;3.98;100.00;101332.41;6092571;19;20643;-81
2024/03/05 00:05:06;;;;;;;17.60;9.07;;;;;;;3.98;100.00;101324.59;6092092;19;20038;-81
2024/03/05 00:07:11;;;;;;;22.05;8.13;;;;;;;4.01;100.00;101324.56;6091928;19;20006;-80
2024/03/05 00:09:18;;;;;;;21.75;10.00;;;;;;;4.01;100.00;101326.31;6094055;19;20043;-82
2024/03/05 00:11:23;;;;;;;23.05;11.82;;;;;;;4.07;100.00;101324.53;6093506;19;20010;-82
2024/03/05 00:13:30;;;;;;;22.10;10.50;;;;;;;4.07;100.00;101331.47;6087276;19;20760;-78
2024/03/05 00:15:39;;;;;;;20.10;10.02;;;;;;;4.05;100.00;101326.25;6085892;19;20015;-78
2024/03/05 00:17:42;;;;;;;17.48;9.85;;;;;;;4.15;100.00;101327.09;6086015;19;20007;-78
2024/03/05 00:19:51;;;;;;;23.95;11.38;;;;;;;4.12;100.00;101330.56;6083922;19;20023;-78
2024/03/05 00:21:56;;;;;;;22.50;10.95;;;;;;;4.15;100.00;101330.53;6086855;19;20015;-78
2024/03/05 00:24:01;;;;;;;21.27;9.80;;;;;;;4.18;100.00;101329.66;6086236;19;20017;-78
2024/03/05 00:26:07;;;;;;;21.52;9.50;;;;;;;4.22;100.00;101328.78;6087644;19;20011;-78
2024/03/05 00:28:12;;;;;;;22.70;10.30;;;;;;;4.24;100.00;101328.75;6087504;19;20027;-79
2024/03/05 00:30:18;;;;;;;22.02;10.57;;;;;;;4.17;100.00;101327.94;6088091;19;20006;-78
2024/03/05 00:32:26;;;;;;;23.90;11.18;;;;;;;4.19;100.00;101326.19;6085826;19;20007;-78
2024/03/05 00:34:32;;;;;;;16.42;9.48;;;;;;;4.16;100.00;101327.09;6091339;19;20010;-78
2024/03/05 00:36:43;;;;;;;23.33;12.30;;;;;;;4.22;100.00;101331.38;6089191;19;20518;-78
2024/03/05 00:38:48;;;;;;;24.52;10.15;;;;;;;4.22;100.00;101331.38;6083111;19;20595;-78
2024/03/05 00:40:53;;;;;;;25.38;9.55;;;;;;;4.21;100.00;101323.56;6086861;19;20007;-78
2024/03/05 00:43:14;;;;;;;25.15;11.55;;;;;;;4.21;100.00;101331.38;6087964;19;20010;-78
2024/03/05 00:45:21;;;;;;;29.48;10.88;;;;;;;4.18;100.00;101324.44;6087575;19;20117;-78
2024/03/05 00:47:30;;;;;;;24.13;10.38;;;;;;;4.21;100.00;101333.97;6086175;19;20024;-78
2024/03/05 00:49:38;;;;;;;22.88;11.80;;;;;;;4.22;100.00;101328.78;6085684;19;20038;-78
2024/03/05 00:51:47;;;;;;;23.63;10.75;;;;;;;4.18;100.00;101327.06;6088389;19;20003;-78
2024/03/05 00:53:52;;;;;;;23.27;11.63;;;;;;;4.23;100.00;101327.03;6083774;19;20042;-78
2024/03/05 00:56:01;;;;;;;24.52;11.20;;;;;;;4.22;100.00;101327.91;6084858;19;20010;-78
2024/03/05 00:58:07;;;;;;;28.98;11.52;;;;;;;4.21;100.00;101331.38;6081598;19;20003;-78
2024/03/05 01:00:13;;;;;;;23.38;11.43;;;;;;;4.16;100.00;101327.09;6080879;19;20006;-78
2024/03/05 01:02:19;;;;;;;26.33;12.32;;;;;;;4.22;100.00;101320.97;6088036;19;20238;-82
2024/03/05 01:04:29;;;;;;;33.95;14.05;;;;;;;4.21;100.00;101326.19;6090273;19;20006;-82
2024/03/05 01:06:35;;;;;;;24.65;12.23;;;;;;;4.25;100.00;101323.56;6089144;19;20027;-81
2024/03/05 01:08:40;;;;;;;22.33;11.85;;;;;;;4.26;100.00;101321.81;6082218;19;20010;-77
2024/03/05 01:10:46;;;;;;;27.92;12.60;;;;;;;4.24;100.00;101318.34;6084499;19;20013;-78
2024/03/05 01:12:51;;;;;;;29.17;12.63;;;;;;;4.17;100.00;101312.34;6080295;19;20401;-77
2024/03/05 01:14:56;;;;;;;27.80;12.38;;;;;;;4.05;100.00;101313.25;6083539;19;20430;-77
2024/03/05 01:17:04;;;;;;;32.85;12.43;;;;;;;4.01;100.00;101313.31;6084855;19;20007;-78
2024/03/05 01:19:12;;;;;;;27.90;13.05;;;;;;;3.97;100.00;101313.31;6085456;19;20011;-77
2024/03/05 01:21:18;;;;;;;23.75;11.50;;;;;;;3.95;100.00;101311.63;6086804;19;20451;-77
2024/03/05 01:23:21;;;;;;;22.85;11.00;;;;;;;3.97;100.00;101310.69;6083799;19;20182;-78
2024/03/05 01:25:31;;;;;;;26.02;12.35;;;;;;;3.96;100.00;101308.97;6083044;19;20006;-78
2024/03/05 01:27:39;;;;;;;23.13;11.13;;;;;;;3.92;100.00;101302.09;6085242;19;20226;-78
2024/03/05 01:29:48;;;;;;;30.30;12.85;;;;;;;3.90;100.00;101297.78;6086640;19;20014;-81
2024/03/05 01:31:56;;;;;;;27.17;12.23;;;;;;;3.85;100.00;101305.59;6090777;19;20014;-83
2024/03/05 01:34:03;;;;;;;25.38;12.18;;;;;;;3.84;100.00;101296.03;6090192;19;20007;-82
2024/03/05 01:36:10;;;;;;;29.23;11.80;;;;;;;3.85;100.00;101303.00;6087474;19;20011;-81
2024/03/05 01:38:20;;;;;;;21.58;11.02;;;;;;;3.85;100.00;101303.00;6090183;19;20003;-82
2024/03/05 01:40:29;;;;;;;24.30;12.43;;;;;;;3.82;100.00;101300.41;6089624;19;20042;-81
2024/03/05 01:42:35;;;;;;;20.08;9.30;;;;;;;3.79;100.00;101292.63;6089120;19;20038;-82
2024/03/05 01:44:41;;;;;;;23.30;10.45;;;;;;;3.82;100.00;101289.13;6086598;19;20006;-82
2024/03/05 01:46:45;;;;;;;23.33;11.38;;;;;;;3.80;100.00;101291.75;6087980;19;20011;-82
2024/03/05 01:48:51;;;;;;;24.48;12.25;;;;;;;3.74;100.00;101292.66;6087387;19;20010;-78
2024/03/05 01:51:01;;;;;;;26.80;13.10;;;;;;;3.73;100.00;101290.03;6083178;19;20050;-77
2024/03/05 01:53:08;;;;;;;25.60;12.68;;;;;;;3.74;100.00;101292.66;6080244;19;20363;-78
2024/03/05 01:55:17;;;;;;;26.42;11.07;;;;;;;3.77;100.00;101289.19;6078294;19;20007;-76
2024/03/05 01:57:27;;;;;;;26.60;11.50;;;;;;;3.73;100.00;101292.66;6081774;19;20011;-77
2024/03/05 01:59:39;;;;;;;30.23;12.82;;;;;;;3.73;100.00;101292.66;6083027;19;20015;-77
2024/03/05 02:01:44;;;;;;;24.23;12.23;;;;;;;3.72;100.00;101290.94;6082706;19;20012;-78
2024/03/05 02:03:53;;;;;;;23.80;10.40;;;;;;;3.78;100.00;101296.09;6079902;19;20087;-78
2024/03/05 02:06:03;;;;;;;25.23;11.57;;;;;;;3.74;100.00;101297.84;6084100;19;20145;-78
2024/03/05 02:08:11;;;;;;;23.48;11.27;;;;;;;3.71;100.00;101291.78;6084192;19;20372;-77
2024/03/05 02:10:27;;;;;;;25.70;11.70;;;;;;;3.63;100.00;101294.41;6078493;19;20017;-77
2024/03/05 02:12:30;;;;;;;26.75;12.13;;;;;;;3.62;100.00;101291.84;6084217;19;20003;-78
2024/03/05 02:14:43;;;;;;;28.88;13.25;;;;;;;3.52;100.00;101294.47;6084617;19;20011;-77
2024/03/05 02:16:52;;;;;;;28.40;13.27;;;;;;;3.45;100.00;101299.69;6082084;19;20692;-77
2024/03/05 02:18:58;;;;;;;25.00;10.55;;;;;;;3.36;100.00;101289.34;6083233;19;20103;-77
2024/03/05 02:21:11;;;;;;;26.98;12.02;;;;;;;3.28;100.00;101294.56;6084258;19;20021;-76
2024/03/05 02:23:17;;;;;;;24.15;12.32;;;;;;;3.22;100.00;101295.44;6078770;19;20019;-76
2024/03/05 02:25:23;;;;;;;25.35;11.52;;;;;;;3.17;100.00;101293.75;6085377;19;20168;-77
2024/03/05 02:27:36;;;;;;;30.15;11.32;;;;;;;3.13;100.00;101299.78;6083797;19;20007;-77
2024/03/05 02:29:42;;;;;;;26.92;11.25;;;;;;;3.14;100.00;101296.34;6088658;19;20018;-78
2024/03/05 02:31:52;;;;;;;22.70;10.85;;;;;;;3.11;100.00;101298.94;6087167;19;20011;-77
2024/03/05 02:33:57;;;;;;;22.52;11.38;;;;;;;3.04;100.00;101298.09;6086325;19;20014;-78
2024/03/05 02:36:04;;;;;;;23.35;11.25;;;;;;;3.08;100.00;101305.00;6087694;19;20409;-76
2024/03/05 02:38:12;;;;;;;23.40;11.13;;;;;;;3.12;100.00;101308.47;6088385;19;20647;-78
2024/03/05 02:40:30;;;;;;;27.55;11.40;;;;;;;3.10;100.00;101299.81;6089876;19;20839;-77
2024/03/05 02:42:32;;;;;;;24.05;11.25;;;;;;;3.09;100.00;101298.94;6087931;19;20075;-77
2024/03/05 02:44:39;;;;;;;24.05;12.13;;;;;;;3.09;100.00;101301.53;6086370;19;20019;-77
2024/03/05 02:46:47;;;;;;;26.17;12.18;;;;;;;3.10;100.00;101305.00;6087891;19;20010;-77
2024/03/05 02:48:59;;;;;;;26.55;14.35;;;;;;;3.07;100.00;101291.16;6086290;19;20018;-78
2024/03/05 02:51:13;;;;;;;31.10;11.95;;;;;;;3.11;100.00;101296.34;6085641;19;20093;-76
2024/03/05 02:53:20;;;;;;;24.40;11.97;;;;;;;3.07;100.00;101292.88;6081665;19;20483;-77
2024/03/05 02:55:27;;;;;;;27.77;12.27;;;;;;;3.05;100.00;101294.63;6085604;19;20038;-77
2024/03/05 02:57:32;;;;;;;27.63;12.63;;;;;;;3.10;100.00;101284.22;6089307;19;20023;-77
2024/03/05 02:59:40;;;;;;;28.20;12.00;;;;;;;3.11;100.00;101291.13;6083539;19;20465;-78
2024/03/05 03:01:53;;;;;;;27.73;12.32;;;;;;;3.09;100.00;101293.75;6087582;19;20471;-77
2024/03/05 03:03:59;;;;;;;30.25;12.63;;;;;;;3.11;100.00;101291.13;6086360;19;20131;-77
2024/03/05 03:06:05;;;;;;;27.90;12.73;;;;;;;3.10;100.00;101292.03;6086532;19;20046;-77
2024/03/05 03:08:21;;;;;;;27.63;13.32;;;;;;;3.12;100.00;101298.09;6088874;19;20010;-77
2024/03/05 03:10:32;;;;;;;30.73;13.73;;;;;;;3.15;100.00;101300.66;6088411;19;20006;-78
2024/03/05 03:12:44;;;;;;;33.47;16.20;;;;;;;3.07;100.00;101304.13;6087336;19;20034;-78
2024/03/05 03:14:51;;;;;;;39.22;15.40;;;;;;;3.11;100.00;101302.41;6088636;19;20014;-77
2024/03/05 03:16:59;;;;;;;31.50;13.63;;;;;;;3.15;100.00;101298.94;6088985;19;20010;-77
2024/03/05 03:19:04;;;;;;;33.00;14.88;;;;;;;3.14;100.00;101298.94;6088497;19;20023;-77
2024/03/05 03:21:14;;;;;;;35.72;13.93;;;;;;;3.13;100.00;101305.84;6087459;19;20023;-77
2024/03/05 03:23:23;;;;;;;31.90;12.50;;;;;;;3.12;100.00;101304.13;6084868;19;20474;-77
2024/03/05 03:25:39;;;;;;;34.35;15.90;;;;;;;3.17;100.00;101304.13;6112365;19;20590;-77
2024/03/05 03:27:48;;;;;;;35.70;14.63;;;;;;;3.13;100.00;101302.41;6084440;19;20406;-79
2024/03/05 03:29:57;;;;;;;28.65;12.88;;;;;;;3.12;100.00;101306.72;6088351;19;20484;-79
2024/03/05 03:32:10;;;;;;;31.70;14.77;;;;;;;3.15;100.00;101305.84;6086015;19;20711;-79
2024/03/05 03:34:16;;;;;;;;;;;;;;;3.21;100.00;101304.13;6087239;19;20010;-77
2024/03/05 03:36:32;;;;;;;39.17;12.57;;;;;;;3.27;100.00;101311.03;6086431;19;19974;-79
2024/03/05 03:39:10;;;;;;;39.35;14.95;;;;;;;3.37;100.00;101302.34;6084109;19;20082;-79
2024/03/05 03:41:17;;;;;;;30.52;14.77;;;;;;;3.45;100.00;101310.97;6085533;19;20051;-79
2024/03/05 03:43:39;;;;;;;37.60;16.50;;;;;;;3.53;100.00;101300.56;6085120;19;20011;-77
2024/03/05 03:45:45;;;;;;;39.58;14.88;;;;;;;3.66;100.00;101303.94;6090256;19;20014;-81
2024/03/05 03:47:53;;;;;;;32.88;15.32;;;;;;;3.79;100.00;101292.63;6091324;19;20039;-79
2024/03/05 03:50:02;;;;;;;37.20;16.23;;;;;;;3.83;100.00;101289.13;6093810;19;20028;-84
2024/03/05 03:52:08;;;;;;;39.78;17.60;;;;;;;3.92;100.00;101291.69;6086031;19;20011;-81
2024/03/05 03:54:14;;;;;;;45.45;16.75;;;;;;;4.02;100.00;101291.63;6087393;19;20006;-83
2024/03/05 03:56:23;;;;;;;38.53;16.23;;;;;;;4.01;100.00;101297.72;6091486;19;20021;-82
2024/03/05 03:58:30;;;;;;;43.35;18.13;;;;;;;3.93;100.00;101288.22;6090870;19;20028;-82
2024/03/05 04:00:35;;;;;;;32.78;13.63;;;;;;;3.91;100.00;101297.75;6089847;19;20015;-83
2024/03/05 04:02:42;;;;;;;41.88;16.02;;;;;;;3.96;100.00;101302.94;6091071;19;20560;-83
2024/03/05 04:04:47;;;;;;;37.08;16.48;;;;;;;3.95;100.00;101296.88;6089680;19;20043;-82
2024/03/05 04:06:52;;;;;;;37.20;16.23;;;;;;;3.99;100.00;101292.50;6090998;19;20010;-82
2024/03/05 04:09:03;;;;;;;40.90;16.73;;;;;;;4.06;100.00;101298.53;6091012;19;20011;-82
2024/03/05 04:11:08;;;;;;;40.28;14.18;;;;;;;4.10;100.00;101295.03;6091602;19;20013;-84
2024/03/05 04:13:17;;;;;;;37.25;16.25;;;;;;;4.10;100.00;101293.28;6092798;19;20003;-83
2024/03/05 04:15:27;;;;;;;39.60;16.48;;;;;;;4.11;100.00;101297.63;6091614;19;20377;-83
2024/03/05 04:17:30;;;;;;;47.33;20.05;;;;;;;4.15;100.00;101299.31;6094183;19;20018;-82
2024/03/05 04:19:44;;;;;;;33.60;14.93;;;;;;;4.19;100.00;101305.41;6094319;19;20007;-83
2024/03/05 04:21:50;;;;;;;37.38;15.70;;;;;;;4.21;100.00;101306.22;6090530;19;20354;-82
2024/03/05 04:23:56;;;;;;;40.17;17.70;;;;;;;4.21;100.00;101303.63;6091681;19;20321;-84
2024/03/05 04:26:07;;;;;;;48.40;18.67;;;;;;;4.31;100.00;101320.91;6089634;19;20011;-82
2024/03/05 04:28:16;;;;;;;38.53;15.77;;;;;;;4.39;100.00;101308.69;6082013;19;20475;-82
2024/03/05 04:30:23;;;;;;;42.40;16.40;;;;;;;4.40;100.00;101317.38;6088435;19;20051;-83
2024/03/05 04:32:33;;;;;;;44.53;15.88;;;;;;;4.35;100.00;101316.56;6091503;19;20013;-82
2024/03/05 04:34:36;;;;;;;46.78;17.27;;;;;;;4.44;100.00;101323.41;6090574;19;20013;-82
2024/03/05 04:36:46;;;;;;;40.80;18.40;;;;;;;4.42;100.00;101319.97;6079622;19;20013;-78
2024/03/05 04:38:55;;;;;;;34.42;15.80;;;;;;;4.42;100.00;101319.97;6079820;19;20022;-77
2024/03/05 04:41:11;;;;;;;34.50;15.82;;;;;;;4.46;100.00;101319.06;6081574;19;20014;-78
2024/03/05 04:45:52;;;;;;;33.47;15.13;;;;;;;4.40;100.00;101323.44;6082591;19;20471;-78
2024/03/05 04:48:41;;;;;;;43.53;17.05;;;;;;;4.32;100.00;101325.25;6081452;19;20014;-78
2024/03/05 04:53:12;;;;;;;40.55;17.40;;;;;;;4.36;100.00;101319.13;6078934;19;20386;-78
2024/03/05 04:55:34;;;;;;;45.28;19.33;;;;;;;4.34;100.00;101320.88;6084435;19;20015;-77
2024/03/05 04:57:48;;;;;;;38.65;16.45;;;;;;;4.39;100.00;101320.84;6106962;19;22407;-77
2024/03/05 04:59:58;;;;;;;39.30;17.20;;;;;;;4.41;100.00;101311.28;6074612;19;20010;-82
2024/03/05 05:02:07;;;;;;;38.90;17.35;;;;;;;4.38;100.00;101317.38;6090501;19;20094;-83
2024/03/05 05:04:13;;;;;;;43.72;17.80;;;;;;;4.37;100.00;101319.97;6091505;19;20006;-83
2024/03/05 05:06:23;;;;;;;36.38;14.20;;;;;;;4.34;100.00;101307.84;6091796;19;20034;-83
2024/03/05 05:08:28;;;;;;;41.63;17.33;;;;;;;4.34;100.00;101309.59;6090323;19;20336;-83
2024/03/05 05:10:34;;;;;;;38.88;14.90;;;;;;;4.39;100.00;101308.69;6094185;19;20086;-83
2024/03/05 05:13:03;;;;;;;40.78;18.40;;;;;;;4.43;100.00;101311.31;6092645;19;20011;-77
2024/03/05 05:15:15;;;;;;;36.85;15.73;;;;;;;4.47;100.00;101305.19;5981374;19;2004830;-77
2024/03/05 05:17:22;;;;;;;45.33;18.25;;;;;;;4.46;100.00;101308.66;6082991;19;20066;-77
2024/03/05 05:19:48;;;;;;;46.35;19.00;;;;;;;4.47;100.00;101307.78;6083586;19;20677;-77
2024/03/05 05:21:55;;;;;;;40.47;16.20;;;;;;;4.50;100.00;101307.75;6089840;19;20006;-83
2024/03/05 05:24:03;;;;;;;45.90;18.23;;;;;;;4.54;100.00;101306.88;6097483;19;20106;-83
2024/03/05 05:26:12;;;;;;;34.50;16.80;;;;;;;4.53;100.00;101305.13;6094039;19;20010;-82
2024/03/05 05:28:23;;;;;;;38.97;17.48;;;;;;;4.51;100.00;101309.50;6093539;19;20577;-83
2024/03/05 05:30:31;;;;;;;40.83;16.75;;;;;;;4.49;100.00;101309.50;6092761;19;20039;-83
2024/03/05 05:32:36;;;;;;;37.08;16.50;;;;;;;4.58;100.00;101313.75;6092663;19;20014;-83
2024/03/05 05:34:41;;;;;;;37.83;17.08;;;;;;;4.70;100.00;101307.59;6093082;19;20019;-82
2024/03/05 05:36:46;;;;;;;39.92;16.88;;;;;;;4.65;100.00;101307.63;6093861;19;20522;-83
2024/03/05 05:38:52;;;;;;;40.53;17.60;;;;;;;4.66;100.00;101308.47;6092356;19;20379;-83
2024/03/05 05:40:58;;;;;;;36.25;14.70;;;;;;;4.67;100.00;101312.84;6093961;19;20010;-83
2024/03/05 05:43:04;;;;;;;46.28;18.48;;;;;;;4.68;100.00;101312.81;6095731;19;20018;-83
2024/03/05 05:45:12;;;;;;;45.33;16.08;;;;;;;4.74;100.00;101317.09;6096745;19;20007;-82
2024/03/05 05:47:19;;;;;;;45.00;18.75;;;;;;;4.78;100.00;101309.25;6098900;19;20079;-83
2024/03/05 05:49:25;;;;;;;39.70;17.80;;;;;;;4.89;100.00;101308.28;6098681;19;20032;-83
2024/03/05 05:51:33;;;;;;;41.55;16.83;;;;;;;4.95;100.00;101314.31;6097965;19;20089;-83
2024/03/05 05:53:38;;;;;;;38.97;17.77;;;;;;;4.98;100.00;101318.63;6095169;19;20006;-83
2024/03/05 05:55:45;;;;;;;41.00;18.02;;;;;;;4.93;100.00;101312.59;6097904;19;20517;-83
2024/03/05 05:57:50;;;;;;;43.08;18.25;;;;;;;5.01;100.00;101321.19;6095531;19;20014;-83
2024/03/05 05:59:57;;;;;;;48.13;19.45;;;;;;;4.96;100.00;101323.00;6094489;19;20011;-83
2024/03/05 06:02:03;;;;;;;46.15;18.42;;;;;;;4.97;100.00;101322.94;6093584;19;20015;-83
2024/03/05 06:04:20;;;;;;;41.67;18.85;;;;;;;5.03;100.00;101324.66;6093432;19;20002;-84
2024/03/05 06:06:34;;;;;;;41.17;18.30;;;;;;;5.06;100.00;101328.09;6091392;19;20031;-85
2024/03/05 06:08:39;;;;;;;40.17;16.90;;;;;;;5.07;100.00;101326.34;6091714;19;20136;-83
2024/03/05 06:13:58;;;;;;;43.80;19.25;;;;;;;5.07;100.00;101334.16;5986229;19;2004710;-84
2024/03/05 06:16:07;;;;;;;41.80;16.25;;;;;;;5.09;100.00;101328.94;6090160;19;19998;-82
2024/03/05 06:18:16;;;;;;;39.78;17.15;;;;;;;5.11;100.00;101340.19;6092766;19;20011;-78
2024/03/05 06:21:07;;;;;;;;;;;;;;;;;;;;;
2024/03/05 06:23:44;;;;;;;39.83;17.70;;;;;;;5.08;100.00;101320.25;6081556;19;20084;-77
2024/03/05 06:28:47;;;;;;;37.13;17.60;;;;;;;5.18;100.00;101334.03;6082256;19;20002;-78
2024/03/05 06:31:27;;;;;;;38.95;16.55;;;;;;;5.30;100.00;101338.28;6081944;19;20042;-78
2024/03/05 06:34:05;;;;;;;43.95;20.10;;;;;;;5.29;100.00;101337.38;6073850;19;20002;-77
2024/03/05 06:36:30;;;;;;;41.25;19.13;;;;;;;5.31;100.00;101340.00;6000095;19;2004751;-77
2024/03/05 06:42:10;;;;;;;35.90;15.30;;;;;;;5.33;100.00;101340.84;6081374;19;20491;-78
2024/03/05 06:44:54;;;;;;;50.55;20.98;;;;;;;5.31;100.00;101347.81;6076186;19;20017;-77
2024/03/05 06:47:27;;;;;;;33.83;17.42;;;;;;;5.32;100.00;101352.13;6081586;19;20491;-77
2024/03/05 06:50:38;;;;;;;35.83;18.17;;;;;;;5.38;100.00;101350.34;6079065;19;20254;-77
2024/03/05 07:09:02;;;;;;;40.88;17.13;;;;;;;5.33;100.00;101356.47;6079738;19;20820;-76
2024/03/05 07:17:28;;;;;;;42.35;18.92;;;;;;;5.38;100.00;101365.13;6095034;19;20050;-85
2024/03/05 07:19:37;;;;;;;36.63;18.35;;;;;;;5.40;100.00;101358.16;6097886;19;20477;-86
2024/03/05 07:21:44;;;;;;;39.03;18.17;;;;;;;5.42;100.00;101361.59;6098279;19;20014;-85
2024/03/05 07:23:47;;;;;;;34.45;16.42;;;;;;;5.43;100.00;101360.72;6097327;19;20010;-82
2024/03/05 07:25:52;;;;;;;36.38;17.95;;;;;;;5.47;100.00;101359.78;6095399;19;20078;-84
2024/03/05 07:27:57;;;;;;;42.70;18.75;;;;;;;5.45;100.00;101356.34;6095485;19;20018;-85
2024/03/05 07:30:01;;;;;;;40.10;18.38;;;;;;;5.52;100.00;101357.13;6095325;19;20037;-85
2024/03/05 07:32:15;;;;;;;44.75;19.55;;;;;;;5.52;100.00;101357.13;6093867;19;20014;-85
2024/03/05 07:34:23;;;;;;;42.92;20.00;;;;;;;5.49;100.00;101361.50;6099763;19;20034;-86
2024/03/05 07:36:27;;;;;;;44.22;19.35;;;;;;;5.54;100.00;101356.25;6094554;19;20010;-86
2024/03/05 07:38:34;;;;;;;41.40;17.83;;;;;;;5.58;100.00;101346.63;6095037;19;20694;-86
2024/03/05 07:40:39;;;;;;;45.80;20.05;;;;;;;5.59;100.00;101346.63;6093767;19;20014;-86
2024/03/05 07:42:51;;;;;;;38.85;18.08;;;;;;;5.67;100.00;101355.22;6093896;19;20320;-85
2024/03/05 07:44:57;;;;;;;45.63;18.55;;;;;;;5.68;100.00;101356.94;6095565;19;20026;-86
2024/03/05 07:47:02;;;;;;;51.78;20.15;;;;;;;5.66;100.00;101363.03;6094843;19;20010;-85
2024/03/05 07:52:46;;;;;;;47.50;20.00;;;;;;;5.64;100.00;101368.28;6104763;19;20003;-77
2024/03/05 07:55:13;;;;;;;39.45;16.65;;;;;;;5.72;100.00;101378.63;6094844;19;20458;-85
2024/03/05 07:57:18;;;;;;;44.22;19.42;;;;;;;5.72;100.00;101370.81;6095460;19;20010;-85
2024/03/05 07:59:23;;;;;;;39.08;18.45;;;;;;;5.72;100.00;101376.88;6092199;19;20006;-85
2024/03/05 08:01:33;;;;;;;33.13;17.70;;;;;;;5.72;100.00;101376.88;6092217;19;20007;-85
2024/03/05 08:03:37;;;;;;;38.45;18.08;;;;;;;5.79;100.00;101371.59;6092048;19;20038;-85
2024/03/05 08:05:44;;;;;;;49.63;21.17;;;;;;;5.81;100.00;101373.28;6096278;19;20367;-84
2024/03/05 08:07:56;;;;;;;42.10;17.58;;;;;;;5.88;100.00;101374.09;6099847;19;20011;-83
2024/03/05 08:10:03;;;;;;;37.60;18.52;;;;;;;5.84;100.00;101372.41;6099976;19;20003;-83
2024/03/05 08:12:09;;;;;;;42.28;18.05;;;;;;;5.92;100.00;101371.44;6093627;19;20006;-81
2024/03/05 08:14:14;;;;;;;44.45;18.33;;;;;;;5.85;100.00;101371.53;6090583;19;20010;-80
2024/03/05 08:16:25;;;;;;;41.40;19.08;;;;;;;5.88;100.00;101379.31;6093518;19;20006;-79
2024/03/05 08:18:30;;;;;;;45.97;20.77;;;;;;;5.88;100.00;101385.38;6092740;19;20510;-80
2024/03/05 08:20:36;;;;;;;48.33;19.25;;;;;;;5.95;100.00;101388.84;6088045;19;20010;-78
2024/03/05 08:22:38;;;;;;;39.97;17.88;;;;;;;5.96;100.00;101395.75;6092780;19;20343;-80
2024/03/05 08:24:46;;;;;;;;;;;;;;;5.85;100.00;101395.00;6086164;19;20486;-79
2024/03/05 08:26:53;;;;;;;33.92;16.98;;;;;;;5.82;100.00;101395.91;6087114;19;20429;-80
2024/03/05 08:29:00;;;;;;;36.38;18.00;;;;;;;5.79;100.00;101390.69;6088774;19;20007;-78
2024/03/05 08:31:02;;;;;;;39.92;19.98;;;;;;;5.82;100.00;101403.72;6086329;19;20015;-81
2024/03/05 08:33:08;;;;;;;37.15;16.33;;;;;;;5.85;100.00;101400.22;6088249;19;20055;-80
2024/03/05 08:35:17;;;;;;;38.97;16.65;;;;;;;5.86;100.00;101399.34;6090631;19;20030;-79
2024/03/05 08:37:25;;;;;;;44.72;17.23;;;;;;;5.94;100.00;101402.75;6093018;19;20011;-82
2024/03/05 08:39:29;;;;;;;45.65;19.38;;;;;;;5.99;100.00;101400.94;6092185;19;20426;-80
2024/03/05 08:41:36;;;;;;;45.55;20.05;;;;;;;6.08;100.00;101402.56;6089512;19;20014;-79
2024/03/05 08:43:41;;;;;;;39.10;17.55;;;;;;;6.06;100.00;101407.81;6087885;19;20038;-79
2024/03/05 08:45:47;;;;;;;38.42;18.48;;;;;;;6.09;100.00;101406.91;6086412;19;20019;-78
2024/03/05 08:47:53;;;;;;;47.55;21.13;;;;;;;6.13;100.00;101408.56;6086947;19;20013;-78
2024/03/05 08:49:58;;;;;;;48.05;20.45;;;;;;;6.11;100.00;101410.38;6085119;19;20010;-79
2024/03/05 08:52:04;;;;;;;41.08;18.75;;;;;;;6.19;100.00;101410.25;6085259;19;20011;-78
2024/03/05 08:54:09;;;;;;;43.10;17.80;;;;;;;6.16;100.00;101411.16;6085950;19;20794;-77
2024/03/05 08:56:17;;;;;;;41.28;19.65;;;;;;;6.15;100.00;101412.91;6079938;19;20014;-77
2024/03/05 08:58:28;;;;;;;44.50;19.60;;;;;;;6.21;100.00;101417.16;6085986;19;20018;-77
2024/03/05 09:00:33;;;;;;;42.95;19.17;;;;;;;6.27;100.00;101413.66;6083591;19;20003;-78
2024/03/05 09:02:47;;;;;;;47.85;19.77;;;;;;;6.35;100.00;101417.00;6083471;19;20002;-77
2024/03/05 09:04:52;;;;;;;38.20;17.13;;;;;;;6.38;100.00;101422.19;6081007;19;20027;-78
2024/03/05 09:06:55;;;;;;;42.30;19.02;;;;;;;6.38;100.00;101419.56;6083910;19;20086;-78
2024/03/05 09:09:02;;;;;;;42.72;19.40;;;;;;;6.50;100.00;101424.63;6085551;19;20028;-78
2024/03/05 09:11:11;;;;;;;40.70;18.42;;;;;;;6.47;100.00;101416.81;6084541;19;20010;-77
2024/03/05 09:13:16;;;;;;;42.38;20.23;;;;;;;6.51;100.00;101415.91;6085787;19;20022;-78
2024/03/05 09:15:25;;;;;;;33.05;16.88;;;;;;;6.55;100.00;101422.78;6084852;19;20052;-77
2024/03/05 09:17:31;;;;;;;44.05;19.15;;;;;;;6.49;100.00;101424.63;6083571;19;20034;-77
2024/03/05 09:19:36;;;;;;;43.75;20.85;;;;;;;6.56;100.00;101423.69;6082205;19;20018;-80
2024/03/05 09:21:59;;;;;;;42.30;20.63;;;;;;;6.55;100.00;101422.78;6084351;19;20093;-77
2024/03/05 09:24:52;;;;;;;39.17;18.50;;;;;;;6.62;100.00;101427.94;6081592;19;20011;-77
2024/03/05 09:27:03;;;;;;;40.72;18.50;;;;;;;6.68;100.00;101420.00;5979699;19;2004526;-77
2024/03/05 09:29:08;;;;;;;44.15;19.48;;;;;;;6.72;100.00;101422.56;6085370;19;20332;-77
2024/03/05 09:31:18;;;;;;;40.88;20.23;;;;;;;6.79;100.00;101421.59;6085266;19;20022;-78
2024/03/05 09:33:24;;;;;;;47.78;18.63;;;;;;;6.83;100.00;101432.84;6083915;19;20031;-77
2024/03/05 09:35:31;;;;;;;46.22;19.27;;;;;;;6.92;100.00;101423.97;6084760;19;20010;-77
2024/03/05 09:37:35;;;;;;;43.42;19.48;;;;;;;6.88;100.00;101425.78;6081135;19;20077;-78
2024/03/05 09:39:41;;;;;;;48.25;22.05;;;;;;;6.87;100.00;101418.81;6083276;19;20009;-77
2024/03/05 09:41:44;;;;;;;45.35;20.20;;;;;;;6.93;100.00;101421.34;6086918;19;20340;-77
2024/03/05 09:43:50;;;;;;;40.35;19.77;;;;;;;7.11;100.00;101432.38;6085794;19;20545;-80
2024/03/05 09:46:05;;;;;;;43.78;21.23;;;;;;;7.14;100.00;101424.50;6082843;19;20034;-77
2024/03/05 09:48:17;;;;;;;52.22;21.85;;;;;;;7.09;100.00;101431.56;6084990;19;20314;-78
2024/03/05 09:50:23;;;;;;;49.03;21.42;;;;;;;7.12;100.00;101434.97;6082154;19;20447;-77
2024/03/05 09:52:28;;;;;;;50.10;21.35;;;;;;;7.11;100.00;101435.88;6082550;19;20163;-76
2024/03/05 09:54:34;;;;;;;40.50;19.67;;;;;;;7.13;100.00;101435.84;6082702;19;20007;-76
2024/03/05 09:56:44;;;;;;;47.42;20.67;;;;;;;7.13;100.00;101436.69;6078421;19;20010;-77
2024/03/05 09:58:51;;;;;;;44.22;23.35;;;;;;;7.19;100.00;101436.59;6083026;19;20108;-76
2024/03/05 10:00:54;;;;;;;43.65;21.33;;;;;;;7.19;100.00;101438.38;6083400;19;20045;-77
2024/03/05 10:03:01;;;;;;;43.83;20.55;;;;;;;7.27;100.00;101439.09;6081117;19;20847;-77
2024/03/05 10:05:15;;;;;;;45.63;21.20;;;;;;;7.34;100.00;101445.91;6084014;19;20369;-75
2024/03/05 10:07:27;;;;;;;43.80;20.48;;;;;;;7.42;100.00;101448.41;6081693;19;20471;-77
2024/03/05 10:09:33;;;;;;;42.58;19.40;;;;;;;7.46;100.00;101453.56;6084111;19;20006;-75
2024/03/05 10:11:36;;;;;;;41.95;20.10;;;;;;;7.57;100.00;101448.13;6081074;19;20017;-75
2024/03/05 10:13:41;;;;;;;;;;;;;;;7.60;100.00;101452.44;6081234;19;20010;-73
2024/03/05 10:15:47;;;;;;;42.67;22.77;;;;;;;7.61;100.00;101452.44;6084409;19;19911;-74
2024/03/05 10:17:53;;;;;;;48.60;21.58;;;;;;;7.56;100.00;101446.41;6083679;19;20581;-75
2024/03/05 10:20:01;;;;;;;44.78;20.80;;;;;;;7.67;100.00;101454.06;6081544;19;20010;-75
2024/03/05 10:22:14;;;;;;;43.58;21.98;;;;;;;7.68;100.00;101456.63;6081788;19;20048;-76
2024/03/05 10:24:31;;;;;;;37.70;20.33;;;;;;;7.70;100.00;101449.63;6083501;19;20006;-75
2024/03/05 10:26:37;;;;;;;40.97;19.80;;;;;;;7.80;100.00;101452.94;6081462;19;20306;-75
2024/03/05 10:28:44;;;;;;;44.28;21.00;;;;;;;7.93;100.00;101452.72;6076108;19;20010;-75
2024/03/05 10:31:01;;;;;;;41.15;21.60;;;;;;;8.03;100.00;101457.72;6079343;19;20029;-76